sensor_id;sensor_type;location;lat;lon;timestamp;temperature;humidity
4215;DHT22;2121;48.062;7.850;2024-02-16T00:01:35;9.70;99.90
4215;DHT22;2121;48.062;7.850;2024-02-16T00:04:01;9.80;99.90
4215;DHT22;2121;48.062;7.850;2024-02-16T00:06:27;9.70;99.90
4215;DHT22;2121;48.062;7.850;2024-02-16T00:08:53;9.80;99.90
4215;DHT22;2121;48.062;7.850;2024-02-16T00:11:18;9.80;99.90
4215;DHT22;2121;48.062;7.850;2024-02-16T00:13:44;9.80;99.90
4215;DHT22;2121;48.062;7.850;2024-02-16T00:16:10;9.70;99.90
4215;DHT22;2121;48.062;7.850;2024-02-16T00:18:36;9.60;99.90
4215;DHT22;2121;48.062;7.850;2024-02-16T00:21:02;9.50;99.90
4215;DHT22;2121;48.062;7.850;2024-02-16T00:23:28;9.40;99.90
4215;DHT22;2121;48.062;7.850;2024-02-16T00:25:53;9.40;99.90
4215;DHT22;2121;48.062;7.850;2024-02-16T00:28:19;9.40;99.90
4215;DHT22;2121;48.062;7.850;2024-02-16T00:30:45;9.40;99.90
4215;DHT22;2121;48.062;7.850;2024-02-16T00:33:12;9.30;99.90
4215;DHT22;2121;48.062;7.850;2024-02-16T00:35:38;9.30;99.90
4215;DHT22;2121;48.062;7.850;2024-02-16T00:38:04;9.20;99.90
4215;DHT22;2121;48.062;7.850;2024-02-16T00:40:29;9.20;99.90
4215;DHT22;2121;48.062;7.850;2024-02-16T00:42:55;9.20;99.90
4215;DHT22;2121;48.062;7.850;2024-02-16T00:45:21;9.20;99.90
4215;DHT22;2121;48.062;7.850;2024-02-16T00:47:47;9.20;99.90
4215;DHT22;2121;48.062;7.850;2024-02-16T00:50:14;9.20;99.90
4215;DHT22;2121;48.062;7.850;2024-02-16T00:52:40;9.20;99.90
4215;DHT22;2121;48.062;7.850;2024-02-16T00:55:06;9.20;99.90
4215;DHT22;2121;48.062;7.850;2024-02-16T00:57:32;9.30;99.90
4215;DHT22;2121;48.062;7.850;2024-02-16T00:59:59;9.40;99.90
4215;DHT22;2121;48.062;7.850;2024-02-16T01:02:25;9.40;99.90
4215;DHT22;2121;48.062;7.850;2024-02-16T01:04:51;9.40;99.90
4215;DHT22;2121;48.062;7.850;2024-02-16T01:07:18;9.30;99.90
4215;DHT22;2121;48.062;7.850;2024-02-16T01:09:44;9.30;99.90
4215;DHT22;2121;48.062;7.850;2024-02-16T01:12:09;9.30;99.90
4215;DHT22;2121;48.062;7.850;2024-02-16T01:14:35;9.30;99.90
4215;DHT22;2121;48.062;7.850;2024-02-16T01:17:01;9.20;99.90
4215;DHT22;2121;48.062;7.850;2024-02-16T01:19:27;9.20;99.90
4215;DHT22;2121;48.062;7.850;2024-02-16T01:21:52;9.20;99.90
4215;DHT22;2121;48.062;7.850;2024-02-16T01:24:23;9.10;99.90
4215;DHT22;2121;48.062;7.850;2024-02-16T01:26:49;9.20;99.90
4215;DHT22;2121;48.062;7.850;2024-02-16T01:29:15;9.10;99.90
4215;DHT22;2121;48.062;7.850;2024-02-16T01:31:41;9.20;99.90
4215;DHT22;2121;48.062;7.850;2024-02-16T01:34:06;9.20;99.90
4215;DHT22;2121;48.062;7.850;2024-02-16T01:36:32;9.30;99.90
4215;DHT22;2121;48.062;7.850;2024-02-16T01:38:58;9.40;99.90
4215;DHT22;2121;48.062;7.850;2024-02-16T01:41:24;9.40;99.90
4215;DHT22;2121;48.062;7.850;2024-02-16T01:43:55;9.40;99.90
4215;DHT22;2121;48.062;7.850;2024-02-16T01:46:21;9.30;99.90
4215;DHT22;2121;48.062;7.850;2024-02-16T01:48:48;9.20;99.90
4215;DHT22;2121;48.062;7.850;2024-02-16T01:51:16;9.20;99.90
4215;DHT22;2121;48.062;7.850;2024-02-16T01:53:42;9.10;99.90
4215;DHT22;2121;48.062;7.850;2024-02-16T01:56:07;9.00;99.90
4215;DHT22;2121;48.062;7.850;2024-02-16T01:58:34;8.90;99.90
4215;DHT22;2121;48.062;7.850;2024-02-16T02:01:00;8.90;99.90
4215;DHT22;2121;48.062;7.850;2024-02-16T02:03:25;8.90;99.90
4215;DHT22;2121;48.062;7.850;2024-02-16T02:05:51;8.80;99.90
4215;DHT22;2121;48.062;7.850;2024-02-16T02:08:20;8.80;99.90
4215;DHT22;2121;48.062;7.850;2024-02-16T02:10:45;8.90;99.90
4215;DHT22;2121;48.062;7.850;2024-02-16T02:13:11;8.80;99.90
4215;DHT22;2121;48.062;7.850;2024-02-16T02:15:37;8.80;99.90
4215;DHT22;2121;48.062;7.850;2024-02-16T02:18:03;8.80;99.90
4215;DHT22;2121;48.062;7.850;2024-02-16T02:20:29;8.70;99.90
4215;DHT22;2121;48.062;7.850;2024-02-16T02:22:55;8.70;99.90
4215;DHT22;2121;48.062;7.850;2024-02-16T02:25:21;8.70;99.90
4215;DHT22;2121;48.062;7.850;2024-02-16T02:27:47;8.80;99.90
4215;DHT22;2121;48.062;7.850;2024-02-16T02:30:12;8.80;99.90
4215;DHT22;2121;48.062;7.850;2024-02-16T02:32:38;8.80;99.90
4215;DHT22;2121;48.062;7.850;2024-02-16T02:35:05;8.90;99.90
4215;DHT22;2121;48.062;7.850;2024-02-16T02:37:31;9.00;99.90
4215;DHT22;2121;48.062;7.850;2024-02-16T02:39:57;9.00;99.90
4215;DHT22;2121;48.062;7.850;2024-02-16T02:42:23;9.00;99.90
4215;DHT22;2121;48.062;7.850;2024-02-16T02:44:49;8.90;99.90
4215;DHT22;2121;48.062;7.850;2024-02-16T02:47:16;9.00;99.90
4215;DHT22;2121;48.062;7.850;2024-02-16T02:49:43;8.90;99.90
4215;DHT22;2121;48.062;7.850;2024-02-16T02:52:09;8.80;99.90
4215;DHT22;2121;48.062;7.850;2024-02-16T02:54:34;8.90;99.90
4215;DHT22;2121;48.062;7.850;2024-02-16T02:57:02;8.90;99.90
4215;DHT22;2121;48.062;7.850;2024-02-16T02:59:28;8.80;99.90
4215;DHT22;2121;48.062;7.850;2024-02-16T03:01:54;8.80;99.90
4215;DHT22;2121;48.062;7.850;2024-02-16T03:04:19;8.60;99.90
4215;DHT22;2121;48.062;7.850;2024-02-16T03:06:46;8.50;99.90
4215;DHT22;2121;48.062;7.850;2024-02-16T03:09:11;8.50;99.90
4215;DHT22;2121;48.062;7.850;2024-02-16T03:11:40;8.50;99.90
4215;DHT22;2121;48.062;7.850;2024-02-16T03:14:06;8.50;99.90
4215;DHT22;2121;48.062;7.850;2024-02-16T03:16:32;8.50;99.90
4215;DHT22;2121;48.062;7.850;2024-02-16T03:18:58;8.50;99.90
4215;DHT22;2121;48.062;7.850;2024-02-16T03:21:23;8.50;99.90
4215;DHT22;2121;48.062;7.850;2024-02-16T03:23:49;8.70;99.90
4215;DHT22;2121;48.062;7.850;2024-02-16T03:26:16;8.70;99.90
4215;DHT22;2121;48.062;7.850;2024-02-16T03:28:45;8.80;99.90
4215;DHT22;2121;48.062;7.850;2024-02-16T03:31:21;8.90;99.90
4215;DHT22;2121;48.062;7.850;2024-02-16T03:33:49;9.00;99.90
4215;DHT22;2121;48.062;7.850;2024-02-16T03:36:15;8.90;99.90
4215;DHT22;2121;48.062;7.850;2024-02-16T03:38:42;9.00;99.90
4215;DHT22;2121;48.062;7.850;2024-02-16T03:41:13;8.90;99.90
4215;DHT22;2121;48.062;7.850;2024-02-16T03:43:40;8.90;99.90
4215;DHT22;2121;48.062;7.850;2024-02-16T03:46:06;8.80;99.90
4215;DHT22;2121;48.062;7.850;2024-02-16T03:48:31;8.80;99.90
4215;DHT22;2121;48.062;7.850;2024-02-16T03:50:57;8.80;99.90
4215;DHT22;2121;48.062;7.850;2024-02-16T03:53:23;8.70;99.90
4215;DHT22;2121;48.062;7.850;2024-02-16T03:55:49;8.70;99.90
4215;DHT22;2121;48.062;7.850;2024-02-16T03:58:15;8.70;99.90
4215;DHT22;2121;48.062;7.850;2024-02-16T04:00:42;8.70;99.90
4215;DHT22;2121;48.062;7.850;2024-02-16T04:03:08;8.80;99.90
4215;DHT22;2121;48.062;7.850;2024-02-16T04:05:35;8.60;99.90
4215;DHT22;2121;48.062;7.850;2024-02-16T04:08:03;8.60;99.90
4215;DHT22;2121;48.062;7.850;2024-02-16T04:10:30;8.50;99.90
4215;DHT22;2121;48.062;7.850;2024-02-16T04:12:55;8.50;99.90
4215;DHT22;2121;48.062;7.850;2024-02-16T04:15:21;8.60;99.90
4215;DHT22;2121;48.062;7.850;2024-02-16T04:17:47;8.60;99.90
4215;DHT22;2121;48.062;7.850;2024-02-16T04:20:15;8.60;99.90
4215;DHT22;2121;48.062;7.850;2024-02-16T04:22:41;8.60;99.90
4215;DHT22;2121;48.062;7.850;2024-02-16T04:25:08;8.60;99.90
4215;DHT22;2121;48.062;7.850;2024-02-16T04:27:34;8.60;99.90
4215;DHT22;2121;48.062;7.850;2024-02-16T04:30:02;8.50;99.90
4215;DHT22;2121;48.062;7.850;2024-02-16T04:32:28;8.60;99.90
4215;DHT22;2121;48.062;7.850;2024-02-16T04:34:53;8.60;99.90
4215;DHT22;2121;48.062;7.850;2024-02-16T04:37:21;8.70;99.90
4215;DHT22;2121;48.062;7.850;2024-02-16T04:39:48;8.70;99.90
4215;DHT22;2121;48.062;7.850;2024-02-16T04:42:14;8.70;99.90
4215;DHT22;2121;48.062;7.850;2024-02-16T04:44:40;8.70;99.90
4215;DHT22;2121;48.062;7.850;2024-02-16T04:47:06;8.80;99.90
4215;DHT22;2121;48.062;7.850;2024-02-16T04:49:32;8.80;99.90
4215;DHT22;2121;48.062;7.850;2024-02-16T04:51:58;8.70;99.90
4215;DHT22;2121;48.062;7.850;2024-02-16T04:54:24;8.70;99.90
4215;DHT22;2121;48.062;7.850;2024-02-16T04:56:50;8.70;99.90
4215;DHT22;2121;48.062;7.850;2024-02-16T04:59:19;8.70;99.90
4215;DHT22;2121;48.062;7.850;2024-02-16T05:01:45;8.60;99.90
4215;DHT22;2121;48.062;7.850;2024-02-16T05:04:11;8.60;99.90
4215;DHT22;2121;48.062;7.850;2024-02-16T05:06:45;8.60;99.90
4215;DHT22;2121;48.062;7.850;2024-02-16T05:09:12;8.60;99.90
4215;DHT22;2121;48.062;7.850;2024-02-16T05:11:42;8.80;99.90
4215;DHT22;2121;48.062;7.850;2024-02-16T05:14:09;8.90;99.90
4215;DHT22;2121;48.062;7.850;2024-02-16T05:16:37;8.90;99.90
4215;DHT22;2121;48.062;7.850;2024-02-16T05:19:07;9.00;99.90
4215;DHT22;2121;48.062;7.850;2024-02-16T05:21:33;9.00;99.90
4215;DHT22;2121;48.062;7.850;2024-02-16T05:23:59;9.10;99.90
4215;DHT22;2121;48.062;7.850;2024-02-16T05:26:25;9.10;99.90
4215;DHT22;2121;48.062;7.850;2024-02-16T05:28:50;9.30;99.90
4215;DHT22;2121;48.062;7.850;2024-02-16T05:31:17;9.40;99.90
4215;DHT22;2121;48.062;7.850;2024-02-16T05:33:45;9.50;99.90
4215;DHT22;2121;48.062;7.850;2024-02-16T05:36:19;9.60;99.90
4215;DHT22;2121;48.062;7.850;2024-02-16T05:38:52;9.70;99.90
4215;DHT22;2121;48.062;7.850;2024-02-16T05:41:21;9.70;99.90
4215;DHT22;2121;48.062;7.850;2024-02-16T05:43:46;9.70;99.90
4215;DHT22;2121;48.062;7.850;2024-02-16T05:46:14;9.70;99.90
4215;DHT22;2121;48.062;7.850;2024-02-16T05:48:41;9.60;99.90
4215;DHT22;2121;48.062;7.850;2024-02-16T05:51:08;9.70;99.90
4215;DHT22;2121;48.062;7.850;2024-02-16T05:53:34;9.60;99.90
4215;DHT22;2121;48.062;7.850;2024-02-16T05:56:00;9.60;99.90
4215;DHT22;2121;48.062;7.850;2024-02-16T05:58:27;9.50;99.90
4215;DHT22;2121;48.062;7.850;2024-02-16T06:00:53;9.60;99.90
4215;DHT22;2121;48.062;7.850;2024-02-16T06:03:20;9.60;99.90
4215;DHT22;2121;48.062;7.850;2024-02-16T06:05:46;9.70;99.90
4215;DHT22;2121;48.062;7.850;2024-02-16T06:08:12;9.70;99.90
4215;DHT22;2121;48.062;7.850;2024-02-16T06:10:39;9.70;99.90
4215;DHT22;2121;48.062;7.850;2024-02-16T06:13:05;9.80;99.90
4215;DHT22;2121;48.062;7.850;2024-02-16T06:15:31;10.00;99.90
4215;DHT22;2121;48.062;7.850;2024-02-16T06:17:59;10.20;99.90
4215;DHT22;2121;48.062;7.850;2024-02-16T06:20:26;10.30;99.90
4215;DHT22;2121;48.062;7.850;2024-02-16T06:22:52;10.30;99.90
4215;DHT22;2121;48.062;7.850;2024-02-16T06:25:18;10.40;99.90
4215;DHT22;2121;48.062;7.850;2024-02-16T06:27:45;10.50;99.90
4215;DHT22;2121;48.062;7.850;2024-02-16T06:30:12;10.60;99.90
4215;DHT22;2121;48.062;7.850;2024-02-16T06:32:41;10.90;99.90
4215;DHT22;2121;48.062;7.850;2024-02-16T06:35:08;11.10;99.90
4215;DHT22;2121;48.062;7.850;2024-02-16T06:37:34;11.40;99.90
4215;DHT22;2121;48.062;7.850;2024-02-16T06:40:00;11.50;99.90
4215;DHT22;2121;48.062;7.850;2024-02-16T06:42:25;11.60;99.90
4215;DHT22;2121;48.062;7.850;2024-02-16T06:44:51;11.70;99.90
4215;DHT22;2121;48.062;7.850;2024-02-16T06:47:17;11.80;99.90
4215;DHT22;2121;48.062;7.850;2024-02-16T06:49:44;11.90;99.90
4215;DHT22;2121;48.062;7.850;2024-02-16T06:52:11;12.00;99.90
4215;DHT22;2121;48.062;7.850;2024-02-16T06:54:37;12.10;99.90
4215;DHT22;2121;48.062;7.850;2024-02-16T06:57:03;12.20;99.90
4215;DHT22;2121;48.062;7.850;2024-02-16T06:59:29;12.00;99.90
4215;DHT22;2121;48.062;7.850;2024-02-16T07:01:54;12.00;99.90
4215;DHT22;2121;48.062;7.850;2024-02-16T07:04:20;12.00;99.90
4215;DHT22;2121;48.062;7.850;2024-02-16T07:06:46;12.00;99.90
4215;DHT22;2121;48.062;7.850;2024-02-16T07:09:11;12.10;99.90
4215;DHT22;2121;48.062;7.850;2024-02-16T07:11:40;12.20;99.90
4215;DHT22;2121;48.062;7.850;2024-02-16T07:14:06;12.30;99.90
4215;DHT22;2121;48.062;7.850;2024-02-16T07:16:33;12.30;99.90
4215;DHT22;2121;48.062;7.850;2024-02-16T07:18:59;12.40;99.90
4215;DHT22;2121;48.062;7.850;2024-02-16T07:21:25;12.40;99.90
4215;DHT22;2121;48.062;7.850;2024-02-16T07:23:54;12.40;99.90
4215;DHT22;2121;48.062;7.850;2024-02-16T07:26:21;12.50;99.90
4215;DHT22;2121;48.062;7.850;2024-02-16T07:28:47;12.50;99.90
4215;DHT22;2121;48.062;7.850;2024-02-16T07:31:13;12.60;99.90
4215;DHT22;2121;48.062;7.850;2024-02-16T07:33:39;12.60;99.90
4215;DHT22;2121;48.062;7.850;2024-02-16T07:36:06;12.70;99.90
4215;DHT22;2121;48.062;7.850;2024-02-16T07:38:32;12.70;99.90
4215;DHT22;2121;48.062;7.850;2024-02-16T07:40:57;12.80;99.90
4215;DHT22;2121;48.062;7.850;2024-02-16T07:43:24;12.80;99.90
4215;DHT22;2121;48.062;7.850;2024-02-16T07:45:51;12.90;99.90
4215;DHT22;2121;48.062;7.850;2024-02-16T07:48:19;12.90;99.90
4215;DHT22;2121;48.062;7.850;2024-02-16T07:50:47;12.90;99.90
4215;DHT22;2121;48.062;7.850;2024-02-16T07:53:14;12.90;99.90
4215;DHT22;2121;48.062;7.850;2024-02-16T07:55:39;13.00;99.90
4215;DHT22;2121;48.062;7.850;2024-02-16T07:58:05;13.10;99.90
4215;DHT22;2121;48.062;7.850;2024-02-16T08:00:31;13.30;99.90
4215;DHT22;2121;48.062;7.850;2024-02-16T08:02:56;13.30;99.90
4215;DHT22;2121;48.062;7.850;2024-02-16T08:05:22;13.30;99.90
4215;DHT22;2121;48.062;7.850;2024-02-16T08:07:49;13.20;99.90
4215;DHT22;2121;48.062;7.850;2024-02-16T08:10:21;13.30;99.90
4215;DHT22;2121;48.062;7.850;2024-02-16T08:12:48;13.50;99.90
4215;DHT22;2121;48.062;7.850;2024-02-16T08:15:14;13.50;99.90
4215;DHT22;2121;48.062;7.850;2024-02-16T08:17:40;13.40;99.90
4215;DHT22;2121;48.062;7.850;2024-02-16T08:20:06;13.20;99.90
4215;DHT22;2121;48.062;7.850;2024-02-16T08:22:32;13.30;99.90
4215;DHT22;2121;48.062;7.850;2024-02-16T08:24:59;13.40;99.90
4215;DHT22;2121;48.062;7.850;2024-02-16T08:27:25;13.50;99.90
4215;DHT22;2121;48.062;7.850;2024-02-16T08:29:51;13.70;99.90
4215;DHT22;2121;48.062;7.850;2024-02-16T08:32:19;13.80;99.90
4215;DHT22;2121;48.062;7.850;2024-02-16T08:34:46;14.20;99.90
4215;DHT22;2121;48.062;7.850;2024-02-16T08:37:14;14.60;99.90
4215;DHT22;2121;48.062;7.850;2024-02-16T08:39:40;15.00;99.90
4215;DHT22;2121;48.062;7.850;2024-02-16T08:42:07;15.40;99.90
4215;DHT22;2121;48.062;7.850;2024-02-16T08:44:37;15.60;99.90
4215;DHT22;2121;48.062;7.850;2024-02-16T08:47:04;15.70;99.90
4215;DHT22;2121;48.062;7.850;2024-02-16T08:49:30;15.90;99.90
4215;DHT22;2121;48.062;7.850;2024-02-16T08:51:56;16.00;99.90
4215;DHT22;2121;48.062;7.850;2024-02-16T08:54:22;16.00;99.90
4215;DHT22;2121;48.062;7.850;2024-02-16T08:56:47;16.10;99.90
4215;DHT22;2121;48.062;7.850;2024-02-16T08:59:13;16.00;99.90
4215;DHT22;2121;48.062;7.850;2024-02-16T09:01:39;16.10;99.90
4215;DHT22;2121;48.062;7.850;2024-02-16T09:04:05;16.20;99.90
4215;DHT22;2121;48.062;7.850;2024-02-16T09:06:31;16.20;99.90
4215;DHT22;2121;48.062;7.850;2024-02-16T09:08:57;16.20;99.90
4215;DHT22;2121;48.062;7.850;2024-02-16T09:11:24;16.30;99.90
4215;DHT22;2121;48.062;7.850;2024-02-16T09:13:49;16.40;99.90
4215;DHT22;2121;48.062;7.850;2024-02-16T09:16:15;16.50;99.90
4215;DHT22;2121;48.062;7.850;2024-02-16T09:18:41;16.50;99.90
4215;DHT22;2121;48.062;7.850;2024-02-16T09:21:07;16.50;99.90
4215;DHT22;2121;48.062;7.850;2024-02-16T09:23:34;16.40;99.90
4215;DHT22;2121;48.062;7.850;2024-02-16T09:26:01;16.30;99.90
4215;DHT22;2121;48.062;7.850;2024-02-16T09:28:30;16.30;99.90
4215;DHT22;2121;48.062;7.850;2024-02-16T09:30:56;16.40;99.90
4215;DHT22;2121;48.062;7.850;2024-02-16T09:33:22;16.40;99.90
4215;DHT22;2121;48.062;7.850;2024-02-16T09:35:49;16.50;99.90
4215;DHT22;2121;48.062;7.850;2024-02-16T09:38:15;16.40;99.90
4215;DHT22;2121;48.062;7.850;2024-02-16T09:40:41;16.40;99.90
4215;DHT22;2121;48.062;7.850;2024-02-16T09:43:07;16.40;99.90
4215;DHT22;2121;48.062;7.850;2024-02-16T09:45:33;16.40;99.90
4215;DHT22;2121;48.062;7.850;2024-02-16T09:47:59;16.40;99.90
4215;DHT22;2121;48.062;7.850;2024-02-16T09:50:25;16.50;99.90
4215;DHT22;2121;48.062;7.850;2024-02-16T09:52:54;16.60;99.90
4215;DHT22;2121;48.062;7.850;2024-02-16T09:55:21;16.60;99.90
4215;DHT22;2121;48.062;7.850;2024-02-16T09:57:58;16.60;99.90
4215;DHT22;2121;48.062;7.850;2024-02-16T10:00:25;16.70;99.90
4215;DHT22;2121;48.062;7.850;2024-02-16T10:02:50;16.60;99.90
4215;DHT22;2121;48.062;7.850;2024-02-16T10:05:20;16.70;99.90
4215;DHT22;2121;48.062;7.850;2024-02-16T10:07:47;16.70;99.90
4215;DHT22;2121;48.062;7.850;2024-02-16T10:10:26;16.80;99.90
4215;DHT22;2121;48.062;7.850;2024-02-16T10:13:05;16.90;99.90
4215;DHT22;2121;48.062;7.850;2024-02-16T10:15:35;16.70;99.90
4215;DHT22;2121;48.062;7.850;2024-02-16T10:18:01;16.80;99.90
4215;DHT22;2121;48.062;7.850;2024-02-16T10:20:28;16.90;99.90
4215;DHT22;2121;48.062;7.850;2024-02-16T10:25:38;16.60;99.90
4215;DHT22;2121;48.062;7.850;2024-02-16T10:28:10;16.60;99.90
4215;DHT22;2121;48.062;7.850;2024-02-16T10:30:41;16.60;99.90
4215;DHT22;2121;48.062;7.850;2024-02-16T10:33:09;16.70;99.90
4215;DHT22;2121;48.062;7.850;2024-02-16T10:35:38;16.90;99.90
4215;DHT22;2121;48.062;7.850;2024-02-16T10:38:06;16.60;99.90
4215;DHT22;2121;48.062;7.850;2024-02-16T10:40:41;16.60;99.90
4215;DHT22;2121;48.062;7.850;2024-02-16T10:43:09;16.70;99.90
4215;DHT22;2121;48.062;7.850;2024-02-16T10:45:37;16.70;99.90
4215;DHT22;2121;48.062;7.850;2024-02-16T10:48:04;16.70;99.90
4215;DHT22;2121;48.062;7.850;2024-02-16T10:50:32;16.60;99.90
4215;DHT22;2121;48.062;7.850;2024-02-16T10:53:03;16.60;99.90
4215;DHT22;2121;48.062;7.850;2024-02-16T10:55:30;16.60;99.90
4215;DHT22;2121;48.062;7.850;2024-02-16T10:57:56;16.60;99.90
4215;DHT22;2121;48.062;7.850;2024-02-16T11:00:24;16.30;99.90
4215;DHT22;2121;48.062;7.850;2024-02-16T11:02:56;16.30;99.90
4215;DHT22;2121;48.062;7.850;2024-02-16T11:05:41;16.20;99.90
4215;DHT22;2121;48.062;7.850;2024-02-16T11:08:18;16.20;99.90
4215;DHT22;2121;48.062;7.850;2024-02-16T11:13:26;16.10;99.90
4215;DHT22;2121;48.062;7.850;2024-02-16T11:16:08;16.10;99.90
4215;DHT22;2121;48.062;7.850;2024-02-16T11:18:39;16.20;99.90
4215;DHT22;2121;48.062;7.850;2024-02-16T11:21:12;16.40;99.90
4215;DHT22;2121;48.062;7.850;2024-02-16T11:23:39;16.50;99.90
4215;DHT22;2121;48.062;7.850;2024-02-16T11:26:09;16.80;99.90
4215;DHT22;2121;48.062;7.850;2024-02-16T11:28:37;16.90;99.90
4215;DHT22;2121;48.062;7.850;2024-02-16T11:31:04;16.80;99.90
4215;DHT22;2121;48.062;7.850;2024-02-16T11:33:30;16.40;99.90
4215;DHT22;2121;48.062;7.850;2024-02-16T11:35:57;16.40;99.90
4215;DHT22;2121;48.062;7.850;2024-02-16T11:38:25;16.20;99.90
4215;DHT22;2121;48.062;7.850;2024-02-16T11:41:05;16.20;99.90
4215;DHT22;2121;48.062;7.850;2024-02-16T11:43:33;16.00;99.90
4215;DHT22;2121;48.062;7.850;2024-02-16T11:45:59;15.70;99.90
4215;DHT22;2121;48.062;7.850;2024-02-16T11:48:26;15.10;99.90
4215;DHT22;2121;48.062;7.850;2024-02-16T11:51:05;14.90;99.90
4215;DHT22;2121;48.062;7.850;2024-02-16T11:53:31;14.90;99.90
4215;DHT22;2121;48.062;7.850;2024-02-16T11:55:57;15.00;99.90
4215;DHT22;2121;48.062;7.850;2024-02-16T11:58:24;15.20;99.90
4215;DHT22;2121;48.062;7.850;2024-02-16T12:00:50;15.50;99.90
4215;DHT22;2121;48.062;7.850;2024-02-16T12:03:24;15.90;99.90
4215;DHT22;2121;48.062;7.850;2024-02-16T12:05:56;15.90;99.90
4215;DHT22;2121;48.062;7.850;2024-02-16T12:08:23;16.10;99.90
4215;DHT22;2121;48.062;7.850;2024-02-16T12:10:50;16.10;99.90
4215;DHT22;2121;48.062;7.850;2024-02-16T12:13:18;15.90;99.90
4215;DHT22;2121;48.062;7.850;2024-02-16T12:15:50;15.80;99.90
4215;DHT22;2121;48.062;7.850;2024-02-16T12:18:24;15.80;99.90
4215;DHT22;2121;48.062;7.850;2024-02-16T12:23:28;15.70;99.90
4215;DHT22;2121;48.062;7.850;2024-02-16T12:25:56;15.60;99.90
4215;DHT22;2121;48.062;7.850;2024-02-16T12:28:26;15.40;99.90
4215;DHT22;2121;48.062;7.850;2024-02-16T12:30:57;15.30;99.90
4215;DHT22;2121;48.062;7.850;2024-02-16T12:33:23;15.10;99.90
4215;DHT22;2121;48.062;7.850;2024-02-16T12:35:49;15.10;99.90
4215;DHT22;2121;48.062;7.850;2024-02-16T12:38:15;15.00;99.90
4215;DHT22;2121;48.062;7.850;2024-02-16T12:40:48;15.00;99.90
4215;DHT22;2121;48.062;7.850;2024-02-16T12:43:14;14.90;99.90
4215;DHT22;2121;48.062;7.850;2024-02-16T12:45:41;15.00;99.90
4215;DHT22;2121;48.062;7.850;2024-02-16T12:48:07;15.00;99.90
4215;DHT22;2121;48.062;7.850;2024-02-16T12:50:35;15.00;99.90
4215;DHT22;2121;48.062;7.850;2024-02-16T12:53:01;15.00;99.90
4215;DHT22;2121;48.062;7.850;2024-02-16T12:55:27;15.10;99.90
4215;DHT22;2121;48.062;7.850;2024-02-16T12:57:53;15.20;99.90
4215;DHT22;2121;48.062;7.850;2024-02-16T13:00:19;15.30;99.90
4215;DHT22;2121;48.062;7.850;2024-02-16T13:02:45;15.30;99.90
4215;DHT22;2121;48.062;7.850;2024-02-16T13:05:10;15.20;99.90
4215;DHT22;2121;48.062;7.850;2024-02-16T13:07:37;15.10;99.90
4215;DHT22;2121;48.062;7.850;2024-02-16T13:10:07;15.10;99.90
4215;DHT22;2121;48.062;7.850;2024-02-16T13:12:34;15.10;99.90
4215;DHT22;2121;48.062;7.850;2024-02-16T13:15:00;15.00;99.90
4215;DHT22;2121;48.062;7.850;2024-02-16T13:17:27;14.90;99.90
4215;DHT22;2121;48.062;7.850;2024-02-16T13:19:53;14.60;99.90
4215;DHT22;2121;48.062;7.850;2024-02-16T13:22:18;14.70;99.90
4215;DHT22;2121;48.062;7.850;2024-02-16T13:24:44;14.70;99.90
4215;DHT22;2121;48.062;7.850;2024-02-16T13:27:10;14.80;99.90
4215;DHT22;2121;48.062;7.850;2024-02-16T13:29:36;14.80;99.90
4215;DHT22;2121;48.062;7.850;2024-02-16T13:32:04;14.90;99.90
4215;DHT22;2121;48.062;7.850;2024-02-16T13:34:30;15.00;99.90
4215;DHT22;2121;48.062;7.850;2024-02-16T13:36:56;15.10;99.90
4215;DHT22;2121;48.062;7.850;2024-02-16T13:39:22;15.10;99.90
4215;DHT22;2121;48.062;7.850;2024-02-16T13:41:48;15.20;99.90
4215;DHT22;2121;48.062;7.850;2024-02-16T13:44:19;15.20;99.90
4215;DHT22;2121;48.062;7.850;2024-02-16T13:46:46;15.20;99.90
4215;DHT22;2121;48.062;7.850;2024-02-16T13:49:15;15.30;99.90
4215;DHT22;2121;48.062;7.850;2024-02-16T13:51:41;15.40;99.90
4215;DHT22;2121;48.062;7.850;2024-02-16T13:54:07;15.60;99.90
4215;DHT22;2121;48.062;7.850;2024-02-16T13:56:33;15.80;99.90
4215;DHT22;2121;48.062;7.850;2024-02-16T13:59:02;16.00;99.90
4215;DHT22;2121;48.062;7.850;2024-02-16T14:01:29;16.00;99.90
4215;DHT22;2121;48.062;7.850;2024-02-16T14:03:55;16.00;99.90
4215;DHT22;2121;48.062;7.850;2024-02-16T14:06:21;16.10;99.90
4215;DHT22;2121;48.062;7.850;2024-02-16T14:08:47;16.10;99.90
4215;DHT22;2121;48.062;7.850;2024-02-16T14:11:21;16.30;99.90
4215;DHT22;2121;48.062;7.850;2024-02-16T14:13:48;16.30;99.90
4215;DHT22;2121;48.062;7.850;2024-02-16T14:16:13;16.30;99.90
4215;DHT22;2121;48.062;7.850;2024-02-16T14:18:39;16.20;99.90
4215;DHT22;2121;48.062;7.850;2024-02-16T14:21:05;16.20;99.90
4215;DHT22;2121;48.062;7.850;2024-02-16T14:23:31;16.20;99.90
4215;DHT22;2121;48.062;7.850;2024-02-16T14:25:57;16.00;99.90
4215;DHT22;2121;48.062;7.850;2024-02-16T14:28:23;16.00;99.90
4215;DHT22;2121;48.062;7.850;2024-02-16T14:30:49;15.70;99.90
4215;DHT22;2121;48.062;7.850;2024-02-16T14:33:16;15.60;99.90
4215;DHT22;2121;48.062;7.850;2024-02-16T14:35:43;15.60;99.90
4215;DHT22;2121;48.062;7.850;2024-02-16T14:38:09;15.60;99.90
4215;DHT22;2121;48.062;7.850;2024-02-16T14:40:38;15.40;99.90
4215;DHT22;2121;48.062;7.850;2024-02-16T14:43:04;15.20;99.90
4215;DHT22;2121;48.062;7.850;2024-02-16T14:45:30;15.20;99.90
4215;DHT22;2121;48.062;7.850;2024-02-16T14:47:56;15.20;99.90
4215;DHT22;2121;48.062;7.850;2024-02-16T14:50:23;15.20;99.90
4215;DHT22;2121;48.062;7.850;2024-02-16T14:52:50;15.10;99.90
4215;DHT22;2121;48.062;7.850;2024-02-16T14:55:16;15.10;99.90
4215;DHT22;2121;48.062;7.850;2024-02-16T14:57:42;15.00;99.90
4215;DHT22;2121;48.062;7.850;2024-02-16T15:00:10;15.00;99.90
4215;DHT22;2121;48.062;7.850;2024-02-16T15:02:37;15.00;99.90
4215;DHT22;2121;48.062;7.850;2024-02-16T15:05:07;15.00;99.90
4215;DHT22;2121;48.062;7.850;2024-02-16T15:07:33;15.00;99.90
4215;DHT22;2121;48.062;7.850;2024-02-16T15:09:59;15.10;99.90
4215;DHT22;2121;48.062;7.850;2024-02-16T15:12:24;15.00;99.90
4215;DHT22;2121;48.062;7.850;2024-02-16T15:14:50;14.90;99.90
4215;DHT22;2121;48.062;7.850;2024-02-16T15:17:16;14.90;99.90
4215;DHT22;2121;48.062;7.850;2024-02-16T15:19:43;14.90;99.90
4215;DHT22;2121;48.062;7.850;2024-02-16T15:22:09;14.90;99.90
4215;DHT22;2121;48.062;7.850;2024-02-16T15:24:35;15.00;99.90
4215;DHT22;2121;48.062;7.850;2024-02-16T15:27:01;15.00;99.90
4215;DHT22;2121;48.062;7.850;2024-02-16T15:29:27;14.90;99.90
4215;DHT22;2121;48.062;7.850;2024-02-16T15:31:53;14.80;99.90
4215;DHT22;2121;48.062;7.850;2024-02-16T15:34:21;14.90;99.90
4215;DHT22;2121;48.062;7.850;2024-02-16T15:36:48;15.00;99.90
4215;DHT22;2121;48.062;7.850;2024-02-16T15:39:14;15.00;99.90
4215;DHT22;2121;48.062;7.850;2024-02-16T15:41:40;15.00;99.90
4215;DHT22;2121;48.062;7.850;2024-02-16T15:44:06;15.00;99.90
4215;DHT22;2121;48.062;7.850;2024-02-16T15:46:31;15.10;99.90
4215;DHT22;2121;48.062;7.850;2024-02-16T15:48:57;15.10;99.90
4215;DHT22;2121;48.062;7.850;2024-02-16T15:51:23;15.10;99.90
4215;DHT22;2121;48.062;7.850;2024-02-16T15:53:49;15.00;99.90
4215;DHT22;2121;48.062;7.850;2024-02-16T15:56:15;15.00;99.90
4215;DHT22;2121;48.062;7.850;2024-02-16T15:58:41;15.00;99.90
4215;DHT22;2121;48.062;7.850;2024-02-16T16:01:08;14.90;99.90
4215;DHT22;2121;48.062;7.850;2024-02-16T16:03:34;14.90;99.90
4215;DHT22;2121;48.062;7.850;2024-02-16T16:06:00;14.70;99.90
4215;DHT22;2121;48.062;7.850;2024-02-16T16:08:26;14.60;99.90
4215;DHT22;2121;48.062;7.850;2024-02-16T16:10:51;14.50;99.90
4215;DHT22;2121;48.062;7.850;2024-02-16T16:13:18;14.50;99.90